sensor_id;sensor_type;location;lat;lon;timestamp;P1;durP1;ratioP1;P2;durP2;ratioP2
80101;SDS011;69407;44.966;19.622;2023-06-26T00:01:14;9.18;;;4.60;;
80101;SDS011;69407;44.966;19.622;2023-06-26T00:03:39;7.97;;;4.35;;
80101;SDS011;69407;44.966;19.622;2023-06-26T00:06:05;9.40;;;4.57;;
80101;SDS011;69407;44.966;19.622;2023-06-26T00:08:30;6.50;;;4.88;;
80101;SDS011;69407;44.966;19.622;2023-06-26T00:10:56;7.30;;;4.68;;
80101;SDS011;69407;44.966;19.622;2023-06-26T00:13:22;7.68;;;5.25;;
80101;SDS011;69407;44.966;19.622;2023-06-26T00:15:48;7.70;;;4.40;;
80101;SDS011;69407;44.966;19.622;2023-06-26T00:18:14;7.70;;;5.63;;
80101;SDS011;69407;44.966;19.622;2023-06-26T00:20:40;6.97;;;4.85;;
80101;SDS011;69407;44.966;19.622;2023-06-26T00:23:05;8.75;;;4.50;;
80101;SDS011;69407;44.966;19.622;2023-06-26T00:25:32;9.75;;;4.78;;
80101;SDS011;69407;44.966;19.622;2023-06-26T00:27:58;6.93;;;5.28;;
80101;SDS011;69407;44.966;19.622;2023-06-26T00:30:24;6.43;;;4.10;;
80101;SDS011;69407;44.966;19.622;2023-06-26T00:32:50;6.97;;;4.65;;
80101;SDS011;69407;44.966;19.622;2023-06-26T00:35:16;7.47;;;5.18;;
80101;SDS011;69407;44.966;19.622;2023-06-26T00:37:41;9.02;;;4.47;;
80101;SDS011;69407;44.966;19.622;2023-06-26T00:40:07;8.15;;;4.38;;
80101;SDS011;69407;44.966;19.622;2023-06-26T00:42:33;8.00;;;4.80;;
80101;SDS011;69407;44.966;19.622;2023-06-26T00:44:58;8.25;;;4.88;;
80101;SDS011;69407;44.966;19.622;2023-06-26T00:47:24;10.85;;;4.50;;
80101;SDS011;69407;44.966;19.622;2023-06-26T00:49:50;7.85;;;5.88;;
80101;SDS011;69407;44.966;19.622;2023-06-26T00:52:16;8.05;;;4.47;;
80101;SDS011;69407;44.966;19.622;2023-06-26T00:54:42;7.22;;;4.78;;
80101;SDS011;69407;44.966;19.622;2023-06-26T00:57:08;10.00;;;6.53;;
80101;SDS011;69407;44.966;19.622;2023-06-26T00:59:34;7.90;;;4.57;;
80101;SDS011;69407;44.966;19.622;2023-06-26T01:02:00;8.23;;;4.72;;
80101;SDS011;69407;44.966;19.622;2023-06-26T01:04:26;7.90;;;4.97;;
80101;SDS011;69407;44.966;19.622;2023-06-26T01:06:52;8.48;;;4.60;;
80101;SDS011;69407;44.966;19.622;2023-06-26T01:11:46;9.45;;;5.03;;
80101;SDS011;69407;44.966;19.622;2023-06-26T01:14:12;9.10;;;5.50;;
80101;SDS011;69407;44.966;19.622;2023-06-26T01:16:38;8.68;;;5.00;;
80101;SDS011;69407;44.966;19.622;2023-06-26T01:19:09;8.88;;;5.38;;
80101;SDS011;69407;44.966;19.622;2023-06-26T01:21:40;7.43;;;5.55;;
80101;SDS011;69407;44.966;19.622;2023-06-26T01:24:09;7.65;;;4.68;;
80101;SDS011;69407;44.966;19.622;2023-06-26T01:26:45;7.70;;;4.43;;
80101;SDS011;69407;44.966;19.622;2023-06-26T01:29:13;9.80;;;5.55;;
80101;SDS011;69407;44.966;19.622;2023-06-26T01:31:40;7.75;;;4.82;;
80101;SDS011;69407;44.966;19.622;2023-06-26T01:34:07;10.43;;;5.60;;
80101;SDS011;69407;44.966;19.622;2023-06-26T01:36:33;7.60;;;4.80;;
80101;SDS011;69407;44.966;19.622;2023-06-26T01:38:58;8.68;;;5.20;;
80101;SDS011;69407;44.966;19.622;2023-06-26T01:41:24;8.48;;;5.15;;
80101;SDS011;69407;44.966;19.622;2023-06-26T01:46:30;9.80;;;4.82;;
80101;SDS011;69407;44.966;19.622;2023-06-26T01:49:05;8.77;;;5.03;;
80101;SDS011;69407;44.966;19.622;2023-06-26T01:51:58;10.20;;;5.13;;
80101;SDS011;69407;44.966;19.622;2023-06-26T01:54:33;10.15;;;5.35;;
80101;SDS011;69407;44.966;19.622;2023-06-26T01:57:04;9.02;;;5.13;;
80101;SDS011;69407;44.966;19.622;2023-06-26T01:59:33;10.90;;;5.38;;
80101;SDS011;69407;44.966;19.622;2023-06-26T02:02:02;7.38;;;4.50;;
80101;SDS011;69407;44.966;19.622;2023-06-26T02:04:32;14.45;;;5.15;;
80101;SDS011;69407;44.966;19.622;2023-06-26T02:06:57;15.57;;;5.15;;
80101;SDS011;69407;44.966;19.622;2023-06-26T02:09:23;12.00;;;6.03;;
80101;SDS011;69407;44.966;19.622;2023-06-26T02:11:48;10.57;;;4.75;;
80101;SDS011;69407;44.966;19.622;2023-06-26T02:14:14;11.15;;;6.15;;
80101;SDS011;69407;44.966;19.622;2023-06-26T02:16:39;8.88;;;5.25;;
80101;SDS011;69407;44.966;19.622;2023-06-26T02:19:04;8.88;;;4.75;;
80101;SDS011;69407;44.966;19.622;2023-06-26T02:21:30;12.85;;;6.40;;
80101;SDS011;69407;44.966;19.622;2023-06-26T02:23:55;10.57;;;5.05;;
80101;SDS011;69407;44.966;19.622;2023-06-26T02:26:21;13.45;;;5.07;;
80101;SDS011;69407;44.966;19.622;2023-06-26T02:28:46;12.70;;;6.22;;
80101;SDS011;69407;44.966;19.622;2023-06-26T02:31:12;12.27;;;6.55;;
80101;SDS011;69407;44.966;19.622;2023-06-26T02:33:37;12.70;;;6.10;;
80101;SDS011;69407;44.966;19.622;2023-06-26T02:36:03;8.38;;;5.78;;
80101;SDS011;69407;44.966;19.622;2023-06-26T02:38:29;15.00;;;6.00;;
80101;SDS011;69407;44.966;19.622;2023-06-26T02:40:54;9.32;;;6.07;;
80101;SDS011;69407;44.966;19.622;2023-06-26T02:43:20;12.48;;;5.47;;
80101;SDS011;69407;44.966;19.622;2023-06-26T02:45:45;14.65;;;5.78;;
80101;SDS011;69407;44.966;19.622;2023-06-26T02:48:11;11.60;;;6.53;;
80101;SDS011;69407;44.966;19.622;2023-06-26T02:50:36;10.43;;;6.85;;
80101;SDS011;69407;44.966;19.622;2023-06-26T02:53:02;9.82;;;5.57;;
80101;SDS011;69407;44.966;19.622;2023-06-26T02:55:27;11.05;;;6.90;;
80101;SDS011;69407;44.966;19.622;2023-06-26T02:57:53;11.02;;;5.68;;
80101;SDS011;69407;44.966;19.622;2023-06-26T03:00:18;15.85;;;8.13;;
80101;SDS011;69407;44.966;19.622;2023-06-26T03:02:44;16.00;;;9.52;;
80101;SDS011;69407;44.966;19.622;2023-06-26T03:05:09;16.90;;;9.60;;
80101;SDS011;69407;44.966;19.622;2023-06-26T03:07:35;16.83;;;9.85;;
80101;SDS011;69407;44.966;19.622;2023-06-26T03:10:00;16.67;;;8.55;;
80101;SDS011;69407;44.966;19.622;2023-06-26T03:12:26;12.95;;;6.80;;
80101;SDS011;69407;44.966;19.622;2023-06-26T03:14:51;12.35;;;6.72;;
80101;SDS011;69407;44.966;19.622;2023-06-26T03:17:16;17.05;;;6.60;;
80101;SDS011;69407;44.966;19.622;2023-06-26T03:19:42;10.60;;;6.40;;
80101;SDS011;69407;44.966;19.622;2023-06-26T03:22:08;16.40;;;7.57;;
80101;SDS011;69407;44.966;19.622;2023-06-26T03:24:33;12.68;;;7.03;;
80101;SDS011;69407;44.966;19.622;2023-06-26T03:26:59;11.40;;;5.85;;
80101;SDS011;69407;44.966;19.622;2023-06-26T03:29:25;10.52;;;6.57;;
80101;SDS011;69407;44.966;19.622;2023-06-26T03:31:50;9.68;;;6.05;;
80101;SDS011;69407;44.966;19.622;2023-06-26T03:34:16;12.73;;;6.05;;
80101;SDS011;69407;44.966;19.622;2023-06-26T03:36:41;10.55;;;7.50;;
80101;SDS011;69407;44.966;19.622;2023-06-26T03:39:06;14.50;;;6.78;;
80101;SDS011;69407;44.966;19.622;2023-06-26T03:41:32;8.60;;;5.78;;
80101;SDS011;69407;44.966;19.622;2023-06-26T03:43:58;11.07;;;5.45;;
80101;SDS011;69407;44.966;19.622;2023-06-26T03:46:25;14.02;;;6.57;;
80101;SDS011;69407;44.966;19.622;2023-06-26T03:48:50;15.35;;;7.63;;
80101;SDS011;69407;44.966;19.622;2023-06-26T03:51:16;15.88;;;7.28;;
80101;SDS011;69407;44.966;19.622;2023-06-26T03:53:41;14.82;;;7.43;;
80101;SDS011;69407;44.966;19.622;2023-06-26T03:56:07;15.20;;;6.30;;
80101;SDS011;69407;44.966;19.622;2023-06-26T03:58:32;10.55;;;7.15;;
80101;SDS011;69407;44.966;19.622;2023-06-26T04:00:58;12.60;;;5.97;;
80101;SDS011;69407;44.966;19.622;2023-06-26T04:03:24;8.60;;;5.38;;
80101;SDS011;69407;44.966;19.622;2023-06-26T04:05:49;13.30;;;7.68;;
80101;SDS011;69407;44.966;19.622;2023-06-26T04:08:15;14.18;;;7.68;;
80101;SDS011;69407;44.966;19.622;2023-06-26T04:10:40;16.92;;;8.57;;
80101;SDS011;69407;44.966;19.622;2023-06-26T04:13:06;12.23;;;7.07;;
80101;SDS011;69407;44.966;19.622;2023-06-26T04:15:31;13.00;;;6.55;;
80101;SDS011;69407;44.966;19.622;2023-06-26T04:17:57;11.10;;;7.22;;
80101;SDS011;69407;44.966;19.622;2023-06-26T04:20:22;15.40;;;8.05;;
80101;SDS011;69407;44.966;19.622;2023-06-26T04:22:48;9.65;;;5.97;;
80101;SDS011;69407;44.966;19.622;2023-06-26T04:25:13;10.30;;;6.97;;
80101;SDS011;69407;44.966;19.622;2023-06-26T04:27:39;11.88;;;6.30;;
80101;SDS011;69407;44.966;19.622;2023-06-26T04:30:04;10.93;;;7.20;;
80101;SDS011;69407;44.966;19.622;2023-06-26T04:32:30;11.00;;;6.20;;
80101;SDS011;69407;44.966;19.622;2023-06-26T04:34:56;11.25;;;7.60;;
80101;SDS011;69407;44.966;19.622;2023-06-26T04:37:22;10.38;;;6.38;;
80101;SDS011;69407;44.966;19.622;2023-06-26T04:39:47;12.43;;;6.80;;
80101;SDS011;69407;44.966;19.622;2023-06-26T04:42:13;9.18;;;6.10;;
80101;SDS011;69407;44.966;19.622;2023-06-26T04:44:38;11.35;;;7.05;;
80101;SDS011;69407;44.966;19.622;2023-06-26T04:47:06;14.05;;;8.00;;
80101;SDS011;69407;44.966;19.622;2023-06-26T04:49:31;11.35;;;7.78;;
80101;SDS011;69407;44.966;19.622;2023-06-26T04:51:57;12.05;;;7.95;;
80101;SDS011;69407;44.966;19.622;2023-06-26T04:54:25;11.63;;;7.03;;
80101;SDS011;69407;44.966;19.622;2023-06-26T04:56:51;12.10;;;8.50;;
80101;SDS011;69407;44.966;19.622;2023-06-26T04:59:16;12.07;;;7.75;;
80101;SDS011;69407;44.966;19.622;2023-06-26T05:01:42;13.30;;;8.18;;
80101;SDS011;69407;44.966;19.622;2023-06-26T05:04:09;12.05;;;8.50;;
80101;SDS011;69407;44.966;19.622;2023-06-26T05:06:34;13.70;;;7.35;;
80101;SDS011;69407;44.966;19.622;2023-06-26T05:09:00;10.95;;;6.28;;
80101;SDS011;69407;44.966;19.622;2023-06-26T05:11:25;10.73;;;7.55;;
80101;SDS011;69407;44.966;19.622;2023-06-26T05:13:51;9.50;;;7.35;;
80101;SDS011;69407;44.966;19.622;2023-06-26T05:16:16;11.77;;;6.35;;
80101;SDS011;69407;44.966;19.622;2023-06-26T05:18:42;13.07;;;8.00;;
80101;SDS011;69407;44.966;19.622;2023-06-26T05:21:07;10.35;;;7.40;;
80101;SDS011;69407;44.966;19.622;2023-06-26T05:23:35;10.90;;;7.70;;
80101;SDS011;69407;44.966;19.622;2023-06-26T05:26:01;9.27;;;6.28;;
80101;SDS011;69407;44.966;19.622;2023-06-26T05:28:28;11.98;;;7.00;;
80101;SDS011;69407;44.966;19.622;2023-06-26T05:30:56;12.43;;;9.40;;
80101;SDS011;69407;44.966;19.622;2023-06-26T05:33:25;27.83;;;8.57;;
80101;SDS011;69407;44.966;19.622;2023-06-26T05:35:52;9.60;;;6.30;;
80101;SDS011;69407;44.966;19.622;2023-06-26T05:38:18;11.20;;;7.18;;
80101;SDS011;69407;44.966;19.622;2023-06-26T05:40:44;10.13;;;6.78;;
80101;SDS011;69407;44.966;19.622;2023-06-26T05:43:10;14.00;;;8.18;;
80101;SDS011;69407;44.966;19.622;2023-06-26T05:45:36;11.20;;;7.90;;
80101;SDS011;69407;44.966;19.622;2023-06-26T05:48:01;10.50;;;7.57;;
80101;SDS011;69407;44.966;19.622;2023-06-26T05:50:27;13.15;;;8.23;;
80101;SDS011;69407;44.966;19.622;2023-06-26T05:52:53;12.15;;;6.72;;
80101;SDS011;69407;44.966;19.622;2023-06-26T05:55:19;11.57;;;6.40;;
80101;SDS011;69407;44.966;19.622;2023-06-26T05:57:46;11.52;;;6.88;;
80101;SDS011;69407;44.966;19.622;2023-06-26T06:00:12;14.05;;;6.97;;
80101;SDS011;69407;44.966;19.622;2023-06-26T06:02:38;10.95;;;6.95;;
80101;SDS011;69407;44.966;19.622;2023-06-26T06:05:05;13.25;;;8.00;;
80101;SDS011;69407;44.966;19.622;2023-06-26T06:07:34;11.35;;;6.82;;
80101;SDS011;69407;44.966;19.622;2023-06-26T06:10:00;10.18;;;6.90;;
80101;SDS011;69407;44.966;19.622;2023-06-26T06:12:27;13.82;;;7.13;;
80101;SDS011;69407;44.966;19.622;2023-06-26T06:14:53;12.50;;;7.18;;
80101;SDS011;69407;44.966;19.622;2023-06-26T06:17:20;12.23;;;6.75;;
80101;SDS011;69407;44.966;19.622;2023-06-26T06:19:46;10.00;;;7.43;;
80101;SDS011;69407;44.966;19.622;2023-06-26T06:22:11;9.10;;;7.30;;
80101;SDS011;69407;44.966;19.622;2023-06-26T06:24:37;8.77;;;5.70;;
80101;SDS011;69407;44.966;19.622;2023-06-26T06:27:02;10.68;;;5.38;;
80101;SDS011;69407;44.966;19.622;2023-06-26T06:29:28;8.10;;;5.20;;
80101;SDS011;69407;44.966;19.622;2023-06-26T06:31:54;10.02;;;6.78;;
80101;SDS011;69407;44.966;19.622;2023-06-26T06:34:19;11.02;;;6.32;;
80101;SDS011;69407;44.966;19.622;2023-06-26T06:36:45;10.65;;;6.57;;
80101;SDS011;69407;44.966;19.622;2023-06-26T06:39:10;9.30;;;6.38;;
80101;SDS011;69407;44.966;19.622;2023-06-26T06:41:36;9.63;;;5.97;;
80101;SDS011;69407;44.966;19.622;2023-06-26T06:44:01;11.05;;;6.68;;
80101;SDS011;69407;44.966;19.622;2023-06-26T06:46:27;9.80;;;6.07;;
80101;SDS011;69407;44.966;19.622;2023-06-26T06:48:52;11.18;;;7.15;;
80101;SDS011;69407;44.966;19.622;2023-06-26T06:51:18;9.23;;;6.15;;
80101;SDS011;69407;44.966;19.622;2023-06-26T06:53:44;11.80;;;8.75;;
80101;SDS011;69407;44.966;19.622;2023-06-26T06:56:09;9.98;;;7.43;;
80101;SDS011;69407;44.966;19.622;2023-06-26T06:58:35;12.48;;;7.72;;
80101;SDS011;69407;44.966;19.622;2023-06-26T07:01:00;8.70;;;6.45;;
80101;SDS011;69407;44.966;19.622;2023-06-26T07:03:29;9.00;;;6.05;;
80101;SDS011;69407;44.966;19.622;2023-06-26T07:05:55;29.70;;;6.00;;
80101;SDS011;69407;44.966;19.622;2023-06-26T07:08:20;8.35;;;5.50;;
80101;SDS011;69407;44.966;19.622;2023-06-26T07:10:46;10.23;;;6.78;;
80101;SDS011;69407;44.966;19.622;2023-06-26T07:13:12;9.90;;;5.95;;
80101;SDS011;69407;44.966;19.622;2023-06-26T07:15:37;8.88;;;6.18;;
80101;SDS011;69407;44.966;19.622;2023-06-26T07:18:03;9.25;;;7.00;;
80101;SDS011;69407;44.966;19.622;2023-06-26T07:20:28;8.48;;;6.00;;
80101;SDS011;69407;44.966;19.622;2023-06-26T07:22:53;7.20;;;5.00;;
80101;SDS011;69407;44.966;19.622;2023-06-26T07:25:19;9.18;;;6.38;;
80101;SDS011;69407;44.966;19.622;2023-06-26T07:27:44;7.95;;;5.18;;
80101;SDS011;69407;44.966;19.622;2023-06-26T07:30:10;7.03;;;5.35;;
80101;SDS011;69407;44.966;19.622;2023-06-26T07:32:36;8.63;;;6.32;;
80101;SDS011;69407;44.966;19.622;2023-06-26T07:35:02;7.03;;;4.60;;
80101;SDS011;69407;44.966;19.622;2023-06-26T07:37:28;6.88;;;4.43;;
80101;SDS011;69407;44.966;19.622;2023-06-26T07:39:54;6.25;;;3.92;;
80101;SDS011;69407;44.966;19.622;2023-06-26T07:42:20;5.07;;;3.90;;
80101;SDS011;69407;44.966;19.622;2023-06-26T07:44:45;6.70;;;3.72;;
80101;SDS011;69407;44.966;19.622;2023-06-26T07:47:11;7.85;;;4.43;;
80101;SDS011;69407;44.966;19.622;2023-06-26T07:49:36;6.78;;;4.00;;
80101;SDS011;69407;44.966;19.622;2023-06-26T07:52:04;5.15;;;3.65;;
80101;SDS011;69407;44.966;19.622;2023-06-26T07:54:30;8.43;;;5.45;;
80101;SDS011;69407;44.966;19.622;2023-06-26T07:56:59;7.75;;;4.53;;
80101;SDS011;69407;44.966;19.622;2023-06-26T07:59:26;6.72;;;4.03;;
80101;SDS011;69407;44.966;19.622;2023-06-26T08:01:53;9.77;;;4.82;;
80101;SDS011;69407;44.966;19.622;2023-06-26T08:04:20;8.82;;;3.05;;
80101;SDS011;69407;44.966;19.622;2023-06-26T08:06:48;6.03;;;3.63;;
80101;SDS011;69407;44.966;19.622;2023-06-26T08:09:14;5.70;;;3.67;;
80101;SDS011;69407;44.966;19.622;2023-06-26T08:11:40;6.65;;;3.15;;
80101;SDS011;69407;44.966;19.622;2023-06-26T08:14:05;5.63;;;3.35;;
80101;SDS011;69407;44.966;19.622;2023-06-26T08:16:31;5.22;;;3.53;;
80101;SDS011;69407;44.966;19.622;2023-06-26T08:18:56;6.68;;;3.58;;
80101;SDS011;69407;44.966;19.622;2023-06-26T08:21:22;5.32;;;4.35;;
80101;SDS011;69407;44.966;19.622;2023-06-26T08:23:47;6.85;;;5.45;;
80101;SDS011;69407;44.966;19.622;2023-06-26T08:26:13;6.43;;;5.28;;
80101;SDS011;69407;44.966;19.622;2023-06-26T08:28:39;5.30;;;3.55;;
80101;SDS011;69407;44.966;19.622;2023-06-26T08:31:04;6.30;;;4.47;;
80101;SDS011;69407;44.966;19.622;2023-06-26T08:33:30;6.70;;;4.22;;
80101;SDS011;69407;44.966;19.622;2023-06-26T08:35:55;8.43;;;4.55;;
80101;SDS011;69407;44.966;19.622;2023-06-26T08:38:21;4.30;;;3.33;;
80101;SDS011;69407;44.966;19.622;2023-06-26T08:40:46;4.18;;;2.88;;
80101;SDS011;69407;44.966;19.622;2023-06-26T08:43:12;3.97;;;2.70;;
80101;SDS011;69407;44.966;19.622;2023-06-26T08:45:38;5.30;;;3.60;;
80101;SDS011;69407;44.966;19.622;2023-06-26T08:48:03;5.78;;;3.97;;
80101;SDS011;69407;44.966;19.622;2023-06-26T08:50:33;5.68;;;3.60;;
80101;SDS011;69407;44.966;19.622;2023-06-26T08:55:50;4.47;;;2.97;;
80101;SDS011;69407;44.966;19.622;2023-06-26T08:58:18;5.40;;;2.97;;
80101;SDS011;69407;44.966;19.622;2023-06-26T09:00:43;11.48;;;7.10;;
80101;SDS011;69407;44.966;19.622;2023-06-26T09:03:09;16.05;;;10.52;;
80101;SDS011;69407;44.966;19.622;2023-06-26T09:05:35;17.80;;;13.00;;
80101;SDS011;69407;44.966;19.622;2023-06-26T09:08:01;5.10;;;3.65;;
80101;SDS011;69407;44.966;19.622;2023-06-26T09:10:27;6.07;;;3.00;;
80101;SDS011;69407;44.966;19.622;2023-06-26T09:12:55;6.60;;;4.82;;
80101;SDS011;69407;44.966;19.622;2023-06-26T09:15:22;5.78;;;3.53;;
80101;SDS011;69407;44.966;19.622;2023-06-26T09:17:48;5.53;;;3.47;;
80101;SDS011;69407;44.966;19.622;2023-06-26T09:20:14;6.43;;;3.30;;
80101;SDS011;69407;44.966;19.622;2023-06-26T09:22:43;6.20;;;3.63;;
80101;SDS011;69407;44.966;19.622;2023-06-26T09:25:12;5.18;;;3.92;;
80101;SDS011;69407;44.966;19.622;2023-06-26T09:27:38;5.68;;;3.40;;
80101;SDS011;69407;44.966;19.622;2023-06-26T09:30:05;5.03;;;3.10;;
80101;SDS011;69407;44.966;19.622;2023-06-26T09:32:35;12.70;;;6.82;;
80101;SDS011;69407;44.966;19.622;2023-06-26T09:35:02;8.43;;;5.57;;
80101;SDS011;69407;44.966;19.622;2023-06-26T09:37:28;8.95;;;5.07;;
80101;SDS011;69407;44.966;19.622;2023-06-26T09:39:54;6.25;;;4.63;;
80101;SDS011;69407;44.966;19.622;2023-06-26T09:42:19;6.88;;;3.72;;
80101;SDS011;69407;44.966;19.622;2023-06-26T09:44:46;4.80;;;3.30;;
80101;SDS011;69407;44.966;19.622;2023-06-26T09:47:12;4.97;;;3.25;;
80101;SDS011;69407;44.966;19.622;2023-06-26T09:49:41;3.80;;;3.25;;
80101;SDS011;69407;44.966;19.622;2023-06-26T09:52:13;5.43;;;3.17;;
80101;SDS011;69407;44.966;19.622;2023-06-26T09:54:40;4.63;;;2.90;;
80101;SDS011;69407;44.966;19.622;2023-06-26T09:57:09;4.40;;;3.50;;
80101;SDS011;69407;44.966;19.622;2023-06-26T09:59:39;4.53;;;3.17;;
80101;SDS011;69407;44.966;19.622;2023-06-26T10:02:05;5.78;;;3.30;;
80101;SDS011;69407;44.966;19.622;2023-06-26T10:04:32;4.78;;;3.15;;
80101;SDS011;69407;44.966;19.622;2023-06-26T10:06:58;4.30;;;2.70;;
80101;SDS011;69407;44.966;19.622;2023-06-26T10:09:26;4.97;;;2.90;;
80101;SDS011;69407;44.966;19.622;2023-06-26T10:14:31;6.55;;;3.97;;
80101;SDS011;69407;44.966;19.622;2023-06-26T10:17:00;5.00;;;3.38;;
80101;SDS011;69407;44.966;19.622;2023-06-26T10:19:28;4.15;;;3.17;;
80101;SDS011;69407;44.966;19.622;2023-06-26T10:21:57;5.25;;;3.55;;
80101;SDS011;69407;44.966;19.622;2023-06-26T10:24:23;4.28;;;3.03;;
80101;SDS011;69407;44.966;19.622;2023-06-26T10:26:52;9.10;;;3.85;;
80101;SDS011;69407;44.966;19.622;2023-06-26T10:29:24;9.80;;;3.13;;
80101;SDS011;69407;44.966;19.622;2023-06-26T10:31:51;5.30;;;3.20;;
80101;SDS011;69407;44.966;19.622;2023-06-26T10:34:20;5.20;;;2.88;;
80101;SDS011;69407;44.966;19.622;2023-06-26T10:36:46;6.05;;;4.22;;
80101;SDS011;69407;44.966;19.622;2023-06-26T10:39:13;8.82;;;4.25;;
80101;SDS011;69407;44.966;19.622;2023-06-26T10:41:39;4.82;;;3.00;;
80101;SDS011;69407;44.966;19.622;2023-06-26T10:44:12;6.00;;;3.13;;
80101;SDS011;69407;44.966;19.622;2023-06-26T10:49:17;5.70;;;3.40;;
80101;SDS011;69407;44.966;19.622;2023-06-26T10:51:47;4.43;;;2.90;;
80101;SDS011;69407;44.966;19.622;2023-06-26T10:54:14;5.53;;;2.53;;
80101;SDS011;69407;44.966;19.622;2023-06-26T10:56:43;5.50;;;3.22;;
80101;SDS011;69407;44.966;19.622;2023-06-26T10:59:20;4.15;;;2.72;;
80101;SDS011;69407;44.966;19.622;2023-06-26T11:01:47;3.95;;;2.83;;
80101;SDS011;69407;44.966;19.622;2023-06-26T11:04:35;5.03;;;3.20;;
80101;SDS011;69407;44.966;19.622;2023-06-26T11:12:36;6.28;;;3.85;;
80101;SDS011;69407;44.966;19.622;2023-06-26T11:15:03;7.05;;;3.80;;
80101;SDS011;69407;44.966;19.622;2023-06-26T11:17:34;5.15;;;3.30;;
80101;SDS011;69407;44.966;19.622;2023-06-26T11:20:00;8.35;;;3.40;;
80101;SDS011;69407;44.966;19.622;2023-06-26T11:22:26;5.97;;;3.03;;
80101;SDS011;69407;44.966;19.622;2023-06-26T11:24:53;4.80;;;2.20;;
80101;SDS011;69407;44.966;19.622;2023-06-26T11:27:19;4.97;;;2.63;;
80101;SDS011;69407;44.966;19.622;2023-06-26T11:29:48;3.85;;;2.85;;
80101;SDS011;69407;44.966;19.622;2023-06-26T11:32:14;3.33;;;2.55;;
80101;SDS011;69407;44.966;19.622;2023-06-26T11:34:40;4.70;;;2.50;;
80101;SDS011;69407;44.966;19.622;2023-06-26T11:37:08;3.92;;;2.38;;
80101;SDS011;69407;44.966;19.622;2023-06-26T11:39:34;3.80;;;2.85;;
80101;SDS011;69407;44.966;19.622;2023-06-26T11:42:00;3.65;;;2.53;;
80101;SDS011;69407;44.966;19.622;2023-06-26T11:44:28;6.90;;;2.90;;
80101;SDS011;69407;44.966;19.622;2023-06-26T11:46:56;5.75;;;3.15;;
80101;SDS011;69407;44.966;19.622;2023-06-26T11:49:22;4.60;;;2.45;;
80101;SDS011;69407;44.966;19.622;2023-06-26T11:51:48;3.78;;;2.78;;
80101;SDS011;69407;44.966;19.622;2023-06-26T11:54:13;5.38;;;3.03;;
80101;SDS011;69407;44.966;19.622;2023-06-26T11:56:39;6.13;;;3.05;;
80101;SDS011;69407;44.966;19.622;2023-06-26T11:59:06;6.55;;;2.63;;
80101;SDS011;69407;44.966;19.622;2023-06-26T12:01:42;5.63;;;3.00;;
80101;SDS011;69407;44.966;19.622;2023-06-26T12:04:14;3.88;;;2.65;;
80101;SDS011;69407;44.966;19.622;2023-06-26T12:06:43;3.78;;;2.53;;
80101;SDS011;69407;44.966;19.622;2023-06-26T12:09:12;4.55;;;3.00;;
80101;SDS011;69407;44.966;19.622;2023-06-26T12:11:40;4.15;;;2.97;;
80101;SDS011;69407;44.966;19.622;2023-06-26T12:14:07;7.20;;;2.88;;
80101;SDS011;69407;44.966;19.622;2023-06-26T12:16:34;6.45;;;2.60;;
80101;SDS011;69407;44.966;19.622;2023-06-26T12:19:00;4.97;;;3.03;;
80101;SDS011;69407;44.966;19.622;2023-06-26T12:21:44;6.72;;;2.35;;
80101;SDS011;69407;44.966;19.622;2023-06-26T12:24:18;5.32;;;3.50;;
80101;SDS011;69407;44.966;19.622;2023-06-26T12:26:46;5.45;;;3.33;;
80101;SDS011;69407;44.966;19.622;2023-06-26T12:29:17;5.85;;;3.78;;
80101;SDS011;69407;44.966;19.622;2023-06-26T12:31:52;8.13;;;3.42;;
80101;SDS011;69407;44.966;19.622;2023-06-26T12:34:19;3.35;;;2.33;;
80101;SDS011;69407;44.966;19.622;2023-06-26T12:37:06;4.45;;;2.80;;
80101;SDS011;69407;44.966;19.622;2023-06-26T12:39:52;7.22;;;3.33;;
80101;SDS011;69407;44.966;19.622;2023-06-26T12:42:19;4.85;;;2.72;;
80101;SDS011;69407;44.966;19.622;2023-06-26T12:44:47;4.35;;;3.03;;
80101;SDS011;69407;44.966;19.622;2023-06-26T12:47:16;4.38;;;3.00;;
80101;SDS011;69407;44.966;19.622;2023-06-26T12:49:44;4.93;;;3.65;;
80101;SDS011;69407;44.966;19.622;2023-06-26T12:52:14;6.25;;;3.05;;
80101;SDS011;69407;44.966;19.622;2023-06-26T12:54:41;4.72;;;3.28;;
80101;SDS011;69407;44.966;19.622;2023-06-26T12:57:07;4.25;;;2.70;;
80101;SDS011;69407;44.966;19.622;2023-06-26T12:59:34;4.90;;;2.92;;
80101;SDS011;69407;44.966;19.622;2023-06-26T13:02:01;4.88;;;3.40;;
80101;SDS011;69407;44.966;19.622;2023-06-26T13:04:27;3.83;;;2.75;;
80101;SDS011;69407;44.966;19.622;2023-06-26T13:06:53;7.90;;;3.05;;
80101;SDS011;69407;44.966;19.622;2023-06-26T13:09:22;11.07;;;5.20;;
80101;SDS011;69407;44.966;19.622;2023-06-26T13:11:49;3.72;;;2.42;;
80101;SDS011;69407;44.966;19.622;2023-06-26T13:14:14;5.88;;;2.75;;
80101;SDS011;69407;44.966;19.622;2023-06-26T13:16:40;5.15;;;2.55;;
80101;SDS011;69407;44.966;19.622;2023-06-26T13:19:06;3.38;;;2.38;;
80101;SDS011;69407;44.966;19.622;2023-06-26T13:21:31;5.85;;;2.92;;
80101;SDS011;69407;44.966;19.622;2023-06-26T13:23:57;5.53;;;3.53;;
80101;SDS011;69407;44.966;19.622;2023-06-26T13:26:24;5.05;;;3.17;;
80101;SDS011;69407;44.966;19.622;2023-06-26T13:31:16;5.13;;;2.35;;
80101;SDS011;69407;44.966;19.622;2023-06-26T13:33:42;6.30;;;2.85;;
80101;SDS011;69407;44.966;19.622;2023-06-26T13:36:07;5.10;;;2.35;;
80101;SDS011;69407;44.966;19.622;2023-06-26T13:38:33;5.15;;;2.72;;
80101;SDS011;69407;44.966;19.622;2023-06-26T13:40:59;8.82;;;2.78;;
80101;SDS011;69407;44.966;19.622;2023-06-26T13:43:26;5.00;;;2.25;;
80101;SDS011;69407;44.966;19.622;2023-06-26T13:45:52;5.00;;;2.38;;
80101;SDS011;69407;44.966;19.622;2023-06-26T13:48:18;4.53;;;2.17;;
80101;SDS011;69407;44.966;19.622;2023-06-26T13:50:43;6.28;;;2.35;;
80101;SDS011;69407;44.966;19.622;2023-06-26T13:53:09;4.43;;;2.63;;
80101;SDS011;69407;44.966;19.622;2023-06-26T13:55:35;4.47;;;2.08;;
80101;SDS011;69407;44.966;19.622;2023-06-26T13:58:02;10.63;;;2.92;;
80101;SDS011;69407;44.966;19.622;2023-06-26T14:00:30;7.75;;;2.40;;
80101;SDS011;69407;44.966;19.622;2023-06-26T14:02:55;6.05;;;2.85;;
80101;SDS011;69407;44.966;19.622;2023-06-26T14:05:21;5.20;;;3.03;;
80101;SDS011;69407;44.966;19.622;2023-06-26T14:07:47;5.60;;;2.60;;
80101;SDS011;69407;44.966;19.622;2023-06-26T14:10:13;5.13;;;2.22;;
80101;SDS011;69407;44.966;19.622;2023-06-26T14:12:40;8.73;;;3.30;;
80101;SDS011;69407;44.966;19.622;2023-06-26T14:15:06;7.18;;;2.80;;
80101;SDS011;69407;44.966;19.622;2023-06-26T14:17:32;7.80;;;3.35;;
80101;SDS011;69407;44.966;19.622;2023-06-26T14:19:57;4.90;;;2.92;;
80101;SDS011;69407;44.966;19.622;2023-06-26T14:22:24;5.00;;;2.72;;
80101;SDS011;69407;44.966;19.622;2023-06-26T14:24:51;8.20;;;3.22;;
80101;SDS011;69407;44.966;19.622;2023-06-26T14:27:16;4.55;;;2.53;;
80101;SDS011;69407;44.966;19.622;2023-06-26T14:29:42;13.02;;;3.38;;
80101;SDS011;69407;44.966;19.622;2023-06-26T14:32:08;6.57;;;2.35;;
80101;SDS011;69407;44.966;19.622;2023-06-26T14:34:34;5.78;;;3.65;;
80101;SDS011;69407;44.966;19.622;2023-06-26T14:36:59;4.97;;;2.85;;
80101;SDS011;69407;44.966;19.622;2023-06-26T14:39:25;7.28;;;3.72;;
80101;SDS011;69407;44.966;19.622;2023-06-26T14:41:50;11.75;;;3.10;;
80101;SDS011;69407;44.966;19.622;2023-06-26T14:44:16;4.15;;;2.58;;
80101;SDS011;69407;44.966;19.622;2023-06-26T14:46:41;4.68;;;2.70;;
80101;SDS011;69407;44.966;19.622;2023-06-26T14:49:08;3.92;;;2.72;;